UKLR

Rivne International Airport

Rivne, Ukraine
TAF UKLR 251113Z 2512/2521 23005G10MPS 9999 BKN023 SCT025CB TEMPO 2512/2521 25009G14MPS 3000 -SHRA BKN015 BKN020CB
Issued Valid From Valid To
Apr-25 @ 11:13 UTC
(7 hours ago)
Apr-25 @ 12:00 UTC
(6 hours ago)
Apr-25 @ 21:00 UTC
(in 3 hours)
Apr-25 @ 12:00 to Apr-25 @ 21:00
TAF UKLR 251113Z 2512/2521 23005G10MPS 9999 BKN023 SCT025CB
Wind Visibility Clouds
230° at 10 knots
 Gusting to 19 knots
10,000+ meters
  • Broken at 2,300' AGL
  • Scattered at 2,500' AGL
Temporary Apr-25 @ 12:00 to Apr-25 @ 21:00
TEMPO 2512/2521 25009G14MPS 3000 -SHRA BKN015 BKN020CB
Wind Visibility Clouds Conditions
250° at 17 knots
 Gusting to 27 knots
2,993 meters
  • Broken at 1,500' AGL
  • Broken at 2,000' AGL
  • Light Rain
TAF UKLR 251113Z 2512/2521 23005G10MPS 9999 BKN023 SCT025CB TEMPO 2512/2521 25009G14MPS 3000 -SHRA BKN015 BKN020CB
Issued Apr-25 @ 11:13 UTC
(7 hours ago)
Valid From Apr-25 @ 12:00 UTC
(6 hours ago)
Valid To Apr-25 @ 21:00 UTC
(in 3 hours)
Apr-25 @ 12:00 - Apr-25 @ 21:00
Wind Visibility
230° at 10 knots
 Gusting to 19 knots
10,000+ meters
Clouds
  • Broken at 2,300' AGL
  • Scattered at 2,500' AGL
Temporary Apr-25 @ 12:00 - Apr-25 @ 21:00
Wind Visibility
250° at 17 knots
 Gusting to 27 knots
2,993 meters
Clouds
  • Broken at 1,500' AGL
  • Broken at 2,000' AGL
Conditions
  • Light Rain